Adrian, Washington
Current Conditions -  °F | °C
As of 9:53 PM on Wednesday 22 Oct 2014 (Local Time) from KEPH Reporting Station
Light Rain Light Rain  
Wind Chill: 56°   Ceiling: 8000
Heat Index: 56°   Visibility: 10mi
Dew Point: 51°   Wind: 14mph
Humidity: 84%   Direction: 170°S
Pressure: 29.66"   Gusts: NA
Location:  47.4314°N, 119.485°W
Report Text: KEPH 230453Z AUTO 17012KT 10SM -RA OVC080 13/11 A2966 RMK AO2 RAB25 SLP042 P0000 T01330106
Loading
Personal Weather Stations






























Interactive Weather Map
Tropical Storm Tracking
New forecast layout! Learn more

10-Day Weather Forecast

Advertisements
Track Severe Weather on mobile